sensor_id;sensor_type;location;lat;lon;timestamp;temperature;humidity
423;DHT22;198;48.752;9.180;2023-03-01T00:01:22;1.70;74.10
423;DHT22;198;48.752;9.180;2023-03-01T00:03:47;1.80;74.50
423;DHT22;198;48.752;9.180;2023-03-01T00:06:13;1.70;74.10
423;DHT22;198;48.752;9.180;2023-03-01T00:08:39;1.70;74.20
423;DHT22;198;48.752;9.180;2023-03-01T00:11:12;1.70;74.40
423;DHT22;198;48.752;9.180;2023-03-01T00:13:38;1.70;74.60
423;DHT22;198;48.752;9.180;2023-03-01T00:16:13;1.70;74.60
423;DHT22;198;48.752;9.180;2023-03-01T00:18:39;1.60;74.70
423;DHT22;198;48.752;9.180;2023-03-01T00:21:04;1.60;74.90
423;DHT22;198;48.752;9.180;2023-03-01T00:23:31;1.60;75.40
423;DHT22;198;48.752;9.180;2023-03-01T00:25:56;1.60;75.30
423;DHT22;198;48.752;9.180;2023-03-01T00:28:22;1.50;75.40
423;DHT22;198;48.752;9.180;2023-03-01T00:30:48;1.50;75.70
423;DHT22;198;48.752;9.180;2023-03-01T00:33:14;1.50;76.40
423;DHT22;198;48.752;9.180;2023-03-01T00:35:39;1.50;76.80
423;DHT22;198;48.752;9.180;2023-03-01T00:38:05;1.50;77.10
423;DHT22;198;48.752;9.180;2023-03-01T00:40:33;1.50;77.20
423;DHT22;198;48.752;9.180;2023-03-01T00:43:00;1.50;77.30
423;DHT22;198;48.752;9.180;2023-03-01T00:45:26;1.50;76.70
423;DHT22;198;48.752;9.180;2023-03-01T00:47:52;1.40;77.30
423;DHT22;198;48.752;9.180;2023-03-01T00:50:18;1.40;77.60
423;DHT22;198;48.752;9.180;2023-03-01T00:52:44;1.40;77.90
423;DHT22;198;48.752;9.180;2023-03-01T00:55:11;1.40;78.40
423;DHT22;198;48.752;9.180;2023-03-01T00:57:37;1.40;78.30
423;DHT22;198;48.752;9.180;2023-03-01T01:00:04;1.40;78.50
423;DHT22;198;48.752;9.180;2023-03-01T01:02:32;1.50;78.20
423;DHT22;198;48.752;9.180;2023-03-01T01:04:58;1.40;78.40
423;DHT22;198;48.752;9.180;2023-03-01T01:07:24;1.40;79.00
423;DHT22;198;48.752;9.180;2023-03-01T01:09:49;1.40;79.20
423;DHT22;198;48.752;9.180;2023-03-01T01:12:15;1.40;79.30
423;DHT22;198;48.752;9.180;2023-03-01T01:14:40;1.40;79.30
423;DHT22;198;48.752;9.180;2023-03-01T01:17:06;1.40;78.90
423;DHT22;198;48.752;9.180;2023-03-01T01:19:31;1.40;78.90
423;DHT22;198;48.752;9.180;2023-03-01T01:21:57;1.40;79.10
423;DHT22;198;48.752;9.180;2023-03-01T01:24:22;1.30;79.10
423;DHT22;198;48.752;9.180;2023-03-01T01:26:48;1.30;79.70
423;DHT22;198;48.752;9.180;2023-03-01T01:29:14;1.30;79.70
423;DHT22;198;48.752;9.180;2023-03-01T01:31:41;1.30;80.20
423;DHT22;198;48.752;9.180;2023-03-01T01:34:09;1.30;80.60
423;DHT22;198;48.752;9.180;2023-03-01T01:36:37;1.30;80.80
423;DHT22;198;48.752;9.180;2023-03-01T01:39:03;1.30;81.20
423;DHT22;198;48.752;9.180;2023-03-01T01:41:29;1.30;81.60
423;DHT22;198;48.752;9.180;2023-03-01T01:44:15;1.30;81.50
423;DHT22;198;48.752;9.180;2023-03-01T01:46:48;1.20;81.80
423;DHT22;198;48.752;9.180;2023-03-01T01:49:28;1.20;82.20
423;DHT22;198;48.752;9.180;2023-03-01T01:52:00;1.20;82.20
423;DHT22;198;48.752;9.180;2023-03-01T01:54:33;1.20;82.30
423;DHT22;198;48.752;9.180;2023-03-01T01:57:03;1.30;83.00
423;DHT22;198;48.752;9.180;2023-03-01T01:59:32;1.30;82.90
423;DHT22;198;48.752;9.180;2023-03-01T02:02:00;1.40;82.90
423;DHT22;198;48.752;9.180;2023-03-01T02:04:28;1.50;83.40
423;DHT22;198;48.752;9.180;2023-03-01T02:07:09;1.60;82.80
423;DHT22;198;48.752;9.180;2023-03-01T02:09:37;1.70;82.90
423;DHT22;198;48.752;9.180;2023-03-01T02:12:04;1.80;82.80
423;DHT22;198;48.752;9.180;2023-03-01T02:14:30;1.80;82.20
423;DHT22;198;48.752;9.180;2023-03-01T02:16:55;1.90;82.50
423;DHT22;198;48.752;9.180;2023-03-01T02:19:42;1.90;81.70
423;DHT22;198;48.752;9.180;2023-03-01T02:22:25;2.00;82.30
423;DHT22;198;48.752;9.180;2023-03-01T02:28:10;2.00;81.00
423;DHT22;198;48.752;9.180;2023-03-01T02:30:37;2.10;81.30
423;DHT22;198;48.752;9.180;2023-03-01T02:33:24;2.20;81.20
423;DHT22;198;48.752;9.180;2023-03-01T02:35:50;2.30;81.20
423;DHT22;198;48.752;9.180;2023-03-01T02:38:16;2.30;80.50
423;DHT22;198;48.752;9.180;2023-03-01T02:40:42;2.40;80.00
423;DHT22;198;48.752;9.180;2023-03-01T02:43:10;2.40;79.10
423;DHT22;198;48.752;9.180;2023-03-01T02:45:37;2.40;78.80
423;DHT22;198;48.752;9.180;2023-03-01T02:48:02;2.30;78.90
423;DHT22;198;48.752;9.180;2023-03-01T02:55:19;2.30;79.20
423;DHT22;198;48.752;9.180;2023-03-01T02:57:46;2.40;79.10
423;DHT22;198;48.752;9.180;2023-03-01T03:00:31;2.30;80.10
423;DHT22;198;48.752;9.180;2023-03-01T03:02:58;2.40;79.50
423;DHT22;198;48.752;9.180;2023-03-01T03:05:28;2.40;78.80
423;DHT22;198;48.752;9.180;2023-03-01T03:07:54;2.40;78.50
423;DHT22;198;48.752;9.180;2023-03-01T03:10:28;2.40;79.50
423;DHT22;198;48.752;9.180;2023-03-01T03:12:59;2.40;79.10
423;DHT22;198;48.752;9.180;2023-03-01T03:15:27;2.40;79.80
423;DHT22;198;48.752;9.180;2023-03-01T03:17:53;2.40;79.00
423;DHT22;198;48.752;9.180;2023-03-01T03:20:21;2.40;79.70
423;DHT22;198;48.752;9.180;2023-03-01T03:22:49;2.40;79.90
423;DHT22;198;48.752;9.180;2023-03-01T03:25:17;2.50;79.70
423;DHT22;198;48.752;9.180;2023-03-01T03:27:44;2.50;79.40
423;DHT22;198;48.752;9.180;2023-03-01T03:30:11;2.50;79.40
423;DHT22;198;48.752;9.180;2023-03-01T03:32:41;2.50;79.40
423;DHT22;198;48.752;9.180;2023-03-01T03:35:08;2.50;79.30
423;DHT22;198;48.752;9.180;2023-03-01T03:37:41;2.50;78.80
423;DHT22;198;48.752;9.180;2023-03-01T03:40:26;2.50;78.80
423;DHT22;198;48.752;9.180;2023-03-01T03:42:52;2.50;79.10
423;DHT22;198;48.752;9.180;2023-03-01T03:45:17;2.50;78.90
423;DHT22;198;48.752;9.180;2023-03-01T03:47:43;2.50;79.10
423;DHT22;198;48.752;9.180;2023-03-01T03:50:11;2.40;79.20
423;DHT22;198;48.752;9.180;2023-03-01T03:52:37;2.40;80.30
423;DHT22;198;48.752;9.180;2023-03-01T03:55:03;2.40;79.80
423;DHT22;198;48.752;9.180;2023-03-01T03:57:28;2.50;79.30
423;DHT22;198;48.752;9.180;2023-03-01T03:59:54;2.50;78.60
423;DHT22;198;48.752;9.180;2023-03-01T04:02:19;2.50;78.80
423;DHT22;198;48.752;9.180;2023-03-01T04:04:48;2.50;79.20
423;DHT22;198;48.752;9.180;2023-03-01T04:07:15;2.50;79.20
423;DHT22;198;48.752;9.180;2023-03-01T04:09:41;2.40;79.60
423;DHT22;198;48.752;9.180;2023-03-01T04:12:08;2.40;80.30
423;DHT22;198;48.752;9.180;2023-03-01T04:14:33;2.50;80.10
423;DHT22;198;48.752;9.180;2023-03-01T04:16:59;2.50;79.70
423;DHT22;198;48.752;9.180;2023-03-01T04:19:24;2.40;79.70
423;DHT22;198;48.752;9.180;2023-03-01T04:21:50;2.40;79.70
423;DHT22;198;48.752;9.180;2023-03-01T04:24:15;2.40;80.50
423;DHT22;198;48.752;9.180;2023-03-01T04:26:41;2.50;80.90
423;DHT22;198;48.752;9.180;2023-03-01T04:29:07;2.50;80.60
423;DHT22;198;48.752;9.180;2023-03-01T04:31:32;2.50;80.80
423;DHT22;198;48.752;9.180;2023-03-01T04:33:59;2.60;80.60
423;DHT22;198;48.752;9.180;2023-03-01T04:36:27;2.60;80.30
423;DHT22;198;48.752;9.180;2023-03-01T04:38:53;2.50;79.40
423;DHT22;198;48.752;9.180;2023-03-01T04:41:21;2.50;79.20
423;DHT22;198;48.752;9.180;2023-03-01T04:43:48;2.50;79.90
423;DHT22;198;48.752;9.180;2023-03-01T04:46:16;2.40;80.50
423;DHT22;198;48.752;9.180;2023-03-01T04:48:43;2.40;80.60
423;DHT22;198;48.752;9.180;2023-03-01T04:51:09;2.40;80.60
423;DHT22;198;48.752;9.180;2023-03-01T04:53:39;2.50;81.00
423;DHT22;198;48.752;9.180;2023-03-01T04:56:05;2.50;80.70
423;DHT22;198;48.752;9.180;2023-03-01T04:58:31;2.50;80.30
423;DHT22;198;48.752;9.180;2023-03-01T05:00:57;2.60;80.30
423;DHT22;198;48.752;9.180;2023-03-01T05:03:22;2.60;80.00
423;DHT22;198;48.752;9.180;2023-03-01T05:05:50;2.60;80.10
423;DHT22;198;48.752;9.180;2023-03-01T05:08:16;2.60;80.20
423;DHT22;198;48.752;9.180;2023-03-01T05:10:49;2.50;79.80
423;DHT22;198;48.752;9.180;2023-03-01T05:13:16;2.50;80.10
423;DHT22;198;48.752;9.180;2023-03-01T05:15:56;2.50;80.30
423;DHT22;198;48.752;9.180;2023-03-01T05:18:26;2.60;80.20
423;DHT22;198;48.752;9.180;2023-03-01T05:20:54;2.60;79.80
423;DHT22;198;48.752;9.180;2023-03-01T05:23:23;2.60;79.90
423;DHT22;198;48.752;9.180;2023-03-01T05:25:49;2.60;80.30
423;DHT22;198;48.752;9.180;2023-03-01T05:28:18;2.60;80.20
423;DHT22;198;48.752;9.180;2023-03-01T05:30:45;2.70;80.80
423;DHT22;198;48.752;9.180;2023-03-01T05:33:11;2.60;80.30
423;DHT22;198;48.752;9.180;2023-03-01T05:35:43;2.70;80.30
423;DHT22;198;48.752;9.180;2023-03-01T05:38:12;2.70;79.90
423;DHT22;198;48.752;9.180;2023-03-01T05:40:39;2.80;79.70
423;DHT22;198;48.752;9.180;2023-03-01T05:43:06;2.80;79.70
423;DHT22;198;48.752;9.180;2023-03-01T05:45:32;2.70;79.70
423;DHT22;198;48.752;9.180;2023-03-01T05:47:58;2.80;80.50
423;DHT22;198;48.752;9.180;2023-03-01T05:50:28;2.80;79.80
423;DHT22;198;48.752;9.180;2023-03-01T05:53:06;2.80;79.50
423;DHT22;198;48.752;9.180;2023-03-01T05:55:34;2.70;79.50
423;DHT22;198;48.752;9.180;2023-03-01T05:58:06;2.70;79.90
423;DHT22;198;48.752;9.180;2023-03-01T06:00:33;2.80;80.10
423;DHT22;198;48.752;9.180;2023-03-01T06:02:59;2.80;79.70
423;DHT22;198;48.752;9.180;2023-03-01T06:05:25;2.80;79.80
423;DHT22;198;48.752;9.180;2023-03-01T06:07:51;2.80;79.70
423;DHT22;198;48.752;9.180;2023-03-01T06:10:17;2.80;80.00
423;DHT22;198;48.752;9.180;2023-03-01T06:12:43;2.80;79.70
423;DHT22;198;48.752;9.180;2023-03-01T06:15:11;2.80;79.60
423;DHT22;198;48.752;9.180;2023-03-01T06:17:39;2.80;80.20
423;DHT22;198;48.752;9.180;2023-03-01T06:20:08;2.70;79.80
423;DHT22;198;48.752;9.180;2023-03-01T06:22:34;2.80;80.20
423;DHT22;198;48.752;9.180;2023-03-01T06:25:00;2.80;80.80
423;DHT22;198;48.752;9.180;2023-03-01T06:27:26;2.80;80.30
423;DHT22;198;48.752;9.180;2023-03-01T06:29:51;2.90;80.00
423;DHT22;198;48.752;9.180;2023-03-01T06:32:17;2.90;79.70
423;DHT22;198;48.752;9.180;2023-03-01T06:34:42;2.90;79.40
423;DHT22;198;48.752;9.180;2023-03-01T06:37:08;2.90;79.70
423;DHT22;198;48.752;9.180;2023-03-01T06:39:34;2.90;79.50
423;DHT22;198;48.752;9.180;2023-03-01T06:41:59;2.90;78.90
423;DHT22;198;48.752;9.180;2023-03-01T06:44:25;3.00;79.20
423;DHT22;198;48.752;9.180;2023-03-01T06:46:51;3.00;79.10
423;DHT22;198;48.752;9.180;2023-03-01T06:49:16;3.00;78.80
423;DHT22;198;48.752;9.180;2023-03-01T06:51:43;3.10;78.90
423;DHT22;198;48.752;9.180;2023-03-01T06:54:09;3.20;79.50
423;DHT22;198;48.752;9.180;2023-03-01T06:56:35;3.20;78.80
423;DHT22;198;48.752;9.180;2023-03-01T06:59:00;3.30;78.30
423;DHT22;198;48.752;9.180;2023-03-01T07:01:26;3.30;77.50
423;DHT22;198;48.752;9.180;2023-03-01T07:03:51;3.20;77.90
423;DHT22;198;48.752;9.180;2023-03-01T07:06:17;3.30;77.80
423;DHT22;198;48.752;9.180;2023-03-01T07:08:43;3.30;77.70
423;DHT22;198;48.752;9.180;2023-03-01T07:11:08;3.30;77.60
423;DHT22;198;48.752;9.180;2023-03-01T07:13:34;3.30;77.60
423;DHT22;198;48.752;9.180;2023-03-01T07:15:59;3.20;77.80
423;DHT22;198;48.752;9.180;2023-03-01T07:18:25;3.20;77.80
423;DHT22;198;48.752;9.180;2023-03-01T07:20:50;3.20;77.40
423;DHT22;198;48.752;9.180;2023-03-01T07:23:16;3.20;77.50
423;DHT22;198;48.752;9.180;2023-03-01T07:25:41;3.10;76.80
423;DHT22;198;48.752;9.180;2023-03-01T07:28:07;3.10;77.90
423;DHT22;198;48.752;9.180;2023-03-01T07:30:32;3.00;78.20
423;DHT22;198;48.752;9.180;2023-03-01T07:32:58;3.00;77.90
423;DHT22;198;48.752;9.180;2023-03-01T07:35:27;3.00;78.30
423;DHT22;198;48.752;9.180;2023-03-01T07:37:53;3.10;78.40
423;DHT22;198;48.752;9.180;2023-03-01T07:40:19;3.20;78.60
423;DHT22;198;48.752;9.180;2023-03-01T07:42:45;3.30;78.20
423;DHT22;198;48.752;9.180;2023-03-01T07:45:11;3.30;78.30
423;DHT22;198;48.752;9.180;2023-03-01T07:47:36;3.40;78.20
423;DHT22;198;48.752;9.180;2023-03-01T07:50:03;3.50;77.90
423;DHT22;198;48.752;9.180;2023-03-01T07:52:29;3.60;78.00
423;DHT22;198;48.752;9.180;2023-03-01T07:54:56;3.80;78.20
423;DHT22;198;48.752;9.180;2023-03-01T07:57:22;3.90;76.90
423;DHT22;198;48.752;9.180;2023-03-01T07:59:47;4.00;76.20
423;DHT22;198;48.752;9.180;2023-03-01T08:02:13;4.10;76.50
423;DHT22;198;48.752;9.180;2023-03-01T08:04:40;4.30;75.90
423;DHT22;198;48.752;9.180;2023-03-01T08:07:06;4.40;75.00
423;DHT22;198;48.752;9.180;2023-03-01T08:09:34;4.50;73.40
423;DHT22;198;48.752;9.180;2023-03-01T08:12:00;4.50;73.20
423;DHT22;198;48.752;9.180;2023-03-01T08:14:26;4.60;73.60
423;DHT22;198;48.752;9.180;2023-03-01T08:16:51;4.80;72.80
423;DHT22;198;48.752;9.180;2023-03-01T08:19:17;4.90;72.80
423;DHT22;198;48.752;9.180;2023-03-01T08:21:43;4.90;70.80
423;DHT22;198;48.752;9.180;2023-03-01T08:24:09;5.10;71.50
423;DHT22;198;48.752;9.180;2023-03-01T08:26:36;5.20;69.20
423;DHT22;198;48.752;9.180;2023-03-01T08:29:01;5.20;69.80
423;DHT22;198;48.752;9.180;2023-03-01T08:31:31;5.30;68.90
423;DHT22;198;48.752;9.180;2023-03-01T08:34:00;5.40;70.50
423;DHT22;198;48.752;9.180;2023-03-01T08:36:27;5.60;70.30
423;DHT22;198;48.752;9.180;2023-03-01T08:38:53;5.80;68.30
423;DHT22;198;48.752;9.180;2023-03-01T08:41:19;6.00;69.20
423;DHT22;198;48.752;9.180;2023-03-01T08:43:45;6.20;67.10
423;DHT22;198;48.752;9.180;2023-03-01T08:46:11;6.50;65.40
423;DHT22;198;48.752;9.180;2023-03-01T08:48:37;6.70;65.00
423;DHT22;198;48.752;9.180;2023-03-01T08:51:10;6.70;62.70
423;DHT22;198;48.752;9.180;2023-03-01T08:53:37;6.90;63.50
423;DHT22;198;48.752;9.180;2023-03-01T08:56:03;7.20;62.40
423;DHT22;198;48.752;9.180;2023-03-01T08:58:29;7.40;61.40
423;DHT22;198;48.752;9.180;2023-03-01T09:00:55;7.80;59.50
423;DHT22;198;48.752;9.180;2023-03-01T09:03:22;7.90;59.30
423;DHT22;198;48.752;9.180;2023-03-01T09:05:47;8.30;59.10
423;DHT22;198;48.752;9.180;2023-03-01T09:08:16;8.40;57.50
423;DHT22;198;48.752;9.180;2023-03-01T09:10:41;8.80;57.70
423;DHT22;198;48.752;9.180;2023-03-01T09:13:07;9.50;56.10
423;DHT22;198;48.752;9.180;2023-03-01T09:15:32;10.30;53.10
423;DHT22;198;48.752;9.180;2023-03-01T09:17:59;10.60;50.70
423;DHT22;198;48.752;9.180;2023-03-01T09:20:24;10.50;50.00
423;DHT22;198;48.752;9.180;2023-03-01T09:22:50;11.30;50.60
423;DHT22;198;48.752;9.180;2023-03-01T09:25:15;12.00;48.30
423;DHT22;198;48.752;9.180;2023-03-01T09:27:41;12.90;46.40
423;DHT22;198;48.752;9.180;2023-03-01T09:30:07;14.00;44.30
423;DHT22;198;48.752;9.180;2023-03-01T09:32:33;15.30;42.20
423;DHT22;198;48.752;9.180;2023-03-01T09:34:59;16.30;39.80
423;DHT22;198;48.752;9.180;2023-03-01T09:37:30;17.10;38.10
423;DHT22;198;48.752;9.180;2023-03-01T09:39:56;17.90;36.40
423;DHT22;198;48.752;9.180;2023-03-01T09:42:22;19.10;35.20
423;DHT22;198;48.752;9.180;2023-03-01T09:45:40;20.60;33.60
423;DHT22;198;48.752;9.180;2023-03-01T09:47:45;22.20;32.20
423;DHT22;198;48.752;9.180;2023-03-01T09:50:19;22.60;29.00
423;DHT22;198;48.752;9.180;2023-03-01T09:52:54;23.20;28.90
423;DHT22;198;48.752;9.180;2023-03-01T09:55:36;23.60;28.40
423;DHT22;198;48.752;9.180;2023-03-01T10:00:53;24.80;27.50
423;DHT22;198;48.752;9.180;2023-03-01T10:03:28;25.10;26.40
423;DHT22;198;48.752;9.180;2023-03-01T10:06:04;26.00;26.20
423;DHT22;198;48.752;9.180;2023-03-01T10:08:40;26.70;25.90
423;DHT22;198;48.752;9.180;2023-03-01T10:13:52;27.30;24.50
423;DHT22;198;48.752;9.180;2023-03-01T10:16:48;27.60;24.20
423;DHT22;198;48.752;9.180;2023-03-01T10:19:27;27.00;23.40
423;DHT22;198;48.752;9.180;2023-03-01T10:21:54;27.30;23.80
423;DHT22;198;48.752;9.180;2023-03-01T10:24:22;27.50;23.50
423;DHT22;198;48.752;9.180;2023-03-01T10:26:54;26.60;23.70
423;DHT22;198;48.752;9.180;2023-03-01T10:29:31;25.80;23.80
423;DHT22;198;48.752;9.180;2023-03-01T10:32:00;25.80;24.00
423;DHT22;198;48.752;9.180;2023-03-01T10:34:30;24.70;24.10
423;DHT22;198;48.752;9.180;2023-03-01T10:37:04;23.60;25.20
423;DHT22;198;48.752;9.180;2023-03-01T10:39:33;24.00;25.50
423;DHT22;198;48.752;9.180;2023-03-01T10:42:04;25.00;24.90
423;DHT22;198;48.752;9.180;2023-03-01T10:49:53;24.10;24.10
423;DHT22;198;48.752;9.180;2023-03-01T10:52:21;22.70;24.50
423;DHT22;198;48.752;9.180;2023-03-01T10:55:41;20.70;25.70
423;DHT22;198;48.752;9.180;2023-03-01T10:57:41;19.60;27.10
423;DHT22;198;48.752;9.180;2023-03-01T11:00:25;19.00;27.20
423;DHT22;198;48.752;9.180;2023-03-01T11:03:11;18.10;28.30
423;DHT22;198;48.752;9.180;2023-03-01T11:05:37;18.30;28.40
423;DHT22;198;48.752;9.180;2023-03-01T11:08:14;18.10;28.30
423;DHT22;198;48.752;9.180;2023-03-01T11:10:40;17.30;28.40
423;DHT22;198;48.752;9.180;2023-03-01T11:13:16;16.30;29.30
423;DHT22;198;48.752;9.180;2023-03-01T11:15:42;16.00;30.10
423;DHT22;198;48.752;9.180;2023-03-01T11:18:20;16.80;30.70
423;DHT22;198;48.752;9.180;2023-03-01T11:20:46;18.60;29.70
423;DHT22;198;48.752;9.180;2023-03-01T11:23:14;20.20;28.70
423;DHT22;198;48.752;9.180;2023-03-01T11:25:43;20.90;28.00
423;DHT22;198;48.752;9.180;2023-03-01T11:28:14;21.40;27.70
423;DHT22;198;48.752;9.180;2023-03-01T11:31:03;21.40;27.20
423;DHT22;198;48.752;9.180;2023-03-01T11:33:48;21.20;27.30
423;DHT22;198;48.752;9.180;2023-03-01T11:36:31;21.40;27.70
423;DHT22;198;48.752;9.180;2023-03-01T11:39:04;22.20;26.90
423;DHT22;198;48.752;9.180;2023-03-01T11:41:33;22.70;26.40
423;DHT22;198;48.752;9.180;2023-03-01T11:44:20;23.30;26.00
423;DHT22;198;48.752;9.180;2023-03-01T11:47:14;23.70;25.80
423;DHT22;198;48.752;9.180;2023-03-01T11:50:19;23.00;26.00
423;DHT22;198;48.752;9.180;2023-03-01T12:00:57;24.40;26.30
423;DHT22;198;48.752;9.180;2023-03-01T12:03:38;26.00;25.60
423;DHT22;198;48.752;9.180;2023-03-01T12:06:24;27.20;24.40
423;DHT22;198;48.752;9.180;2023-03-01T12:11:59;30.40;23.00
423;DHT22;198;48.752;9.180;2023-03-01T12:14:46;30.90;22.50
423;DHT22;198;48.752;9.180;2023-03-01T12:20:25;32.20;21.80
423;DHT22;198;48.752;9.180;2023-03-01T12:25:55;33.90;20.50
423;DHT22;198;48.752;9.180;2023-03-01T12:28:55;34.50;20.80
423;DHT22;198;48.752;9.180;2023-03-01T12:37:13;34.20;20.20
423;DHT22;198;48.752;9.180;2023-03-01T12:43:08;34.50;19.60
423;DHT22;198;48.752;9.180;2023-03-01T12:46:08;34.20;19.20
423;DHT22;198;48.752;9.180;2023-03-01T12:48:40;34.00;19.40
423;DHT22;198;48.752;9.180;2023-03-01T12:51:14;33.00;19.60
423;DHT22;198;48.752;9.180;2023-03-01T12:53:44;32.80;20.00
423;DHT22;198;48.752;9.180;2023-03-01T12:56:22;32.30;20.10
423;DHT22;198;48.752;9.180;2023-03-01T13:01:31;31.90;20.50
423;DHT22;198;48.752;9.180;2023-03-01T13:04:17;32.70;20.30
423;DHT22;198;48.752;9.180;2023-03-01T13:09:30;33.60;20.10
423;DHT22;198;48.752;9.180;2023-03-01T13:11:59;33.20;19.80
423;DHT22;198;48.752;9.180;2023-03-01T13:16:52;32.80;19.80
423;DHT22;198;48.752;9.180;2023-03-01T13:19:19;32.90;19.80
423;DHT22;198;48.752;9.180;2023-03-01T13:21:47;32.60;19.90
423;DHT22;198;48.752;9.180;2023-03-01T13:34:51;28.60;21.40
423;DHT22;198;48.752;9.180;2023-03-01T13:37:26;26.60;22.50
423;DHT22;198;48.752;9.180;2023-03-01T13:39:55;24.80;23.40
423;DHT22;198;48.752;9.180;2023-03-01T13:45:22;21.60;25.50
423;DHT22;198;48.752;9.180;2023-03-01T13:47:56;20.20;26.20
423;DHT22;198;48.752;9.180;2023-03-01T13:50:26;19.20;27.20
423;DHT22;198;48.752;9.180;2023-03-01T13:52:59;18.40;27.70
423;DHT22;198;48.752;9.180;2023-03-01T13:55:44;17.40;28.30
423;DHT22;198;48.752;9.180;2023-03-01T13:58:26;16.80;29.20
423;DHT22;198;48.752;9.180;2023-03-01T14:01:05;16.20;30.00
423;DHT22;198;48.752;9.180;2023-03-01T14:03:33;15.70;31.20
423;DHT22;198;48.752;9.180;2023-03-01T14:08:29;15.30;31.40
423;DHT22;198;48.752;9.180;2023-03-01T14:11:33;14.90;32.10
423;DHT22;198;48.752;9.180;2023-03-01T14:14:32;14.40;32.70
423;DHT22;198;48.752;9.180;2023-03-01T14:20:01;13.80;33.90
423;DHT22;198;48.752;9.180;2023-03-01T14:22:32;13.60;35.10
423;DHT22;198;48.752;9.180;2023-03-01T14:25:05;13.30;35.30
423;DHT22;198;48.752;9.180;2023-03-01T14:27:36;13.00;35.70
423;DHT22;198;48.752;9.180;2023-03-01T14:30:19;12.90;36.10
423;DHT22;198;48.752;9.180;2023-03-01T14:33:02;12.70;36.00
423;DHT22;198;48.752;9.180;2023-03-01T14:35:33;12.60;36.60
423;DHT22;198;48.752;9.180;2023-03-01T14:37:59;12.50;37.00
423;DHT22;198;48.752;9.180;2023-03-01T14:40:30;12.40;36.80
423;DHT22;198;48.752;9.180;2023-03-01T14:42:59;12.30;37.50
423;DHT22;198;48.752;9.180;2023-03-01T14:45:27;12.20;37.30
423;DHT22;198;48.752;9.180;2023-03-01T14:47:55;12.10;37.90
423;DHT22;198;48.752;9.180;2023-03-01T14:50:29;12.00;38.50
423;DHT22;198;48.752;9.180;2023-03-01T14:52:58;12.00;38.10
423;DHT22;198;48.752;9.180;2023-03-01T14:55:38;11.90;38.40
423;DHT22;198;48.752;9.180;2023-03-01T14:58:11;11.90;38.60
423;DHT22;198;48.752;9.180;2023-03-01T15:00:37;11.80;38.60
423;DHT22;198;48.752;9.180;2023-03-01T15:03:12;11.70;38.30
423;DHT22;198;48.752;9.180;2023-03-01T15:05:39;11.50;39.10
423;DHT22;198;48.752;9.180;2023-03-01T15:08:06;11.40;39.20
423;DHT22;198;48.752;9.180;2023-03-01T15:10:34;11.30;39.40
423;DHT22;198;48.752;9.180;2023-03-01T15:13:11;11.30;39.70
423;DHT22;198;48.752;9.180;2023-03-01T15:15:44;11.30;39.70
423;DHT22;198;48.752;9.180;2023-03-01T15:18:32;11.30;39.90
423;DHT22;198;48.752;9.180;2023-03-01T15:21:13;11.40;39.70
423;DHT22;198;48.752;9.180;2023-03-01T15:23:40;11.50;39.80
423;DHT22;198;48.752;9.180;2023-03-01T15:26:06;11.50;39.20
423;DHT22;198;48.752;9.180;2023-03-01T15:28:34;11.60;39.90
423;DHT22;198;48.752;9.180;2023-03-01T15:31:23;11.70;39.60
423;DHT22;198;48.752;9.180;2023-03-01T15:33:50;11.70;39.50
423;DHT22;198;48.752;9.180;2023-03-01T15:36:51;11.70;39.30
423;DHT22;198;48.752;9.180;2023-03-01T15:41:58;12.20;39.00
423;DHT22;198;48.752;9.180;2023-03-01T15:44:33;12.80;38.50
423;DHT22;198;48.752;9.180;2023-03-01T15:46:59;13.20;37.20
423;DHT22;198;48.752;9.180;2023-03-01T15:49:45;13.70;36.80
423;DHT22;198;48.752;9.180;2023-03-01T15:52:16;14.20;36.10
423;DHT22;198;48.752;9.180;2023-03-01T15:54:45;14.60;35.30
423;DHT22;198;48.752;9.180;2023-03-01T15:57:14;15.00;34.60
423;DHT22;198;48.752;9.180;2023-03-01T15:59:40;15.30;34.30
423;DHT22;198;48.752;9.180;2023-03-01T16:02:11;15.50;33.80
423;DHT22;198;48.752;9.180;2023-03-01T16:04:38;15.70;33.70
423;DHT22;198;48.752;9.180;2023-03-01T16:07:03;15.70;33.40
423;DHT22;198;48.752;9.180;2023-03-01T16:09:29;15.40;33.20
423;DHT22;198;48.752;9.180;2023-03-01T16:11:54;15.30;33.10
423;DHT22;198;48.752;9.180;2023-03-01T16:14:20;15.10;32.90
423;DHT22;198;48.752;9.180;2023-03-01T16:16:46;14.40;33.30
423;DHT22;198;48.752;9.180;2023-03-01T16:19:13;13.80;34.00
423;DHT22;198;48.752;9.180;2023-03-01T16:21:39;13.20;34.90
423;DHT22;198;48.752;9.180;2023-03-01T16:24:05;12.60;35.60
423;DHT22;198;48.752;9.180;2023-03-01T16:26:31;12.10;36.30
423;DHT22;198;48.752;9.180;2023-03-01T16:28:57;11.70;36.90
423;DHT22;198;48.752;9.180;2023-03-01T16:31:24;11.30;37.40
423;DHT22;198;48.752;9.180;2023-03-01T16:33:53;10.80;37.90
423;DHT22;198;48.752;9.180;2023-03-01T16:36:20;10.40;38.80
423;DHT22;198;48.752;9.180;2023-03-01T16:38:48;10.10;39.30
423;DHT22;198;48.752;9.180;2023-03-01T16:41:15;9.80;41.00
423;DHT22;198;48.752;9.180;2023-03-01T16:43:42;9.50;41.50
423;DHT22;198;48.752;9.180;2023-03-01T16:46:23;9.30;41.80
423;DHT22;198;48.752;9.180;2023-03-01T16:48:49;9.10;42.30
423;DHT22;198;48.752;9.180;2023-03-01T16:51:15;8.80;42.70
423;DHT22;198;48.752;9.180;2023-03-01T16:53:41;8.70;43.40
423;DHT22;198;48.752;9.180;2023-03-01T16:56:08;8.50;43.60
423;DHT22;198;48.752;9.180;2023-03-01T16:58:37;8.40;44.00
423;DHT22;198;48.752;9.180;2023-03-01T17:01:17;8.30;44.30
423;DHT22;198;48.752;9.180;2023-03-01T17:03:44;8.10;44.90
423;DHT22;198;48.752;9.180;2023-03-01T17:06:15;7.90;44.90
423;DHT22;198;48.752;9.180;2023-03-01T17:08:41;7.80;45.20
423;DHT22;198;48.752;9.180;2023-03-01T17:11:13;7.70;45.70
423;DHT22;198;48.752;9.180;2023-03-01T17:13:39;7.60;46.00
423;DHT22;198;48.752;9.180;2023-03-01T17:16:07;7.60;46.30
423;DHT22;198;48.752;9.180;2023-03-01T17:18:33;7.50;46.40
423;DHT22;198;48.752;9.180;2023-03-01T17:20:59;7.40;46.50
423;DHT22;198;48.752;9.180;2023-03-01T17:23:26;7.30;46.70
423;DHT22;198;48.752;9.180;2023-03-01T17:25:52;7.30;46.80
423;DHT22;198;48.752;9.180;2023-03-01T17:28:20;7.20;46.90
423;DHT22;198;48.752;9.180;2023-03-01T17:30:46;7.20;47.20
423;DHT22;198;48.752;9.180;2023-03-01T17:33:13;7.10;47.30
423;DHT22;198;48.752;9.180;2023-03-01T17:35:38;7.10;47.60
423;DHT22;198;48.752;9.180;2023-03-01T17:38:04;7.10;47.80
423;DHT22;198;48.752;9.180;2023-03-01T17:40:30;7.00;47.70
423;DHT22;198;48.752;9.180;2023-03-01T17:42:56;7.00;48.10
423;DHT22;198;48.752;9.180;2023-03-01T17:45:22;7.00;48.30
423;DHT22;198;48.752;9.180;2023-03-01T17:47:48;6.90;49.00
423;DHT22;198;48.752;9.180;2023-03-01T17:50:13;6.90;48.70
423;DHT22;198;48.752;9.180;2023-03-01T17:52:39;6.90;48.80
423;DHT22;198;48.752;9.180;2023-03-01T17:55:06;6.80;49.20
423;DHT22;198;48.752;9.180;2023-03-01T17:57:32;6.80;49.30
423;DHT22;198;48.752;9.180;2023-03-01T17:59:58;6.80;49.20
423;DHT22;198;48.752;9.180;2023-03-01T18:02:23;6.70;49.60
423;DHT22;198;48.752;9.180;2023-03-01T18:04:51;6.70;49.70
423;DHT22;198;48.752;9.180;2023-03-01T18:07:17;6.70;50.00
423;DHT22;198;48.752;9.180;2023-03-01T18:09:43;6.70;50.00
423;DHT22;198;48.752;9.180;2023-03-01T18:12:08;6.60;50.20
423;DHT22;198;48.752;9.180;2023-03-01T18:14:35;6.60;50.50
423;DHT22;198;48.752;9.180;2023-03-01T18:17:01;6.50;50.50